Time;durP1;ratioP1;P1;durP2;ratioP2;P2;SDS_P1;SDS_P2;PMS_P1;PMS_P2;Temp;Humidity;BMP_temperature;BMP_pressure;BME280_temperature;BME280_humidity;BME280_pressure;Samples;Min_cycle;Max_cycle;Signal;HPM_P1;HPM_P2
2023/12/29 00:04:09;;;;;;;130.65;124.07;;;9.60;99.90;;;;;;12322543;28;20059;-87
2023/12/29 00:10:12;;;;;;;133.80;126.78;;;9.60;99.90;;;;;;12331561;28;20358;-85
2023/12/29 00:16:15;;;;;;;134.13;126.95;;;9.60;99.90;;;;;;12343046;28;20092;-86
2023/12/29 00:22:17;;;;;;;131.30;124.30;;;9.60;99.90;;;;;;12329749;28;20043;-85
2023/12/29 00:28:19;;;;;;;134.88;127.85;;;9.60;99.90;;;;;;12332728;28;20334;-87
2023/12/29 00:34:21;;;;;;;138.23;130.52;;;9.70;99.90;;;;;;12335081;28;20058;-88
2023/12/29 00:40:23;;;;;;;134.32;127.28;;;9.70;99.90;;;;;;12326318;28;20101;-85
2023/12/29 00:46:25;;;;;;;135.50;128.07;;;9.80;99.90;;;;;;12321956;28;20426;-85
2023/12/29 00:52:27;;;;;;;138.35;131.02;;;9.80;99.90;;;;;;12323394;28;20051;-86
2023/12/29 00:58:29;;;;;;;136.75;129.15;;;9.80;99.90;;;;;;12322445;28;20527;-86
2023/12/29 01:04:31;;;;;;;143.82;135.55;;;9.90;99.90;;;;;;12334815;28;20047;-85
2023/12/29 01:10:33;;;;;;;134.13;126.32;;;9.70;99.90;;;;;;12337939;28;20058;-85
2023/12/29 01:16:35;;;;;;;129.68;121.80;;;9.50;99.90;;;;;;12337015;28;20047;-85
2023/12/29 01:22:37;;;;;;;122.47;115.18;;;9.40;99.90;;;;;;12336207;28;20406;-86
2023/12/29 01:28:39;;;;;;;121.10;113.50;;;9.30;99.90;;;;;;12319121;28;20075;-84
2023/12/29 01:34:42;;;;;;;124.15;116.25;;;9.40;99.90;;;;;;12328345;28;20086;-85
2023/12/29 01:40:45;;;;;;;122.00;114.43;;;9.40;99.90;;;;;;12334697;28;20126;-86
2023/12/29 01:46:54;;;;;;;122.60;115.28;;;9.40;99.90;;;;;;12329324;28;20053;-88
2023/12/29 01:52:56;;;;;;;124.95;117.47;;;9.40;99.90;;;;;;12338948;28;20061;-83
2023/12/29 01:58:58;;;;;;;121.57;114.28;;;9.40;99.90;;;;;;12326725;28;20054;-87
2023/12/29 02:05:14;;;;;;;123.88;116.63;;;9.50;99.90;;;;;;12328006;28;20051;-86
2023/12/29 02:11:17;;;;;;;125.93;118.20;;;9.50;99.90;;;;;;12340906;28;20059;-87
2023/12/29 02:17:27;;;;;;;129.27;121.68;;;9.60;99.90;;;;;;12330390;28;20051;-84
2023/12/29 02:23:29;;;;;;;128.55;120.75;;;9.70;99.90;;;;;;12323027;28;20042;-87
2023/12/29 02:29:33;;;;;;;122.20;114.57;;;9.70;99.90;;;;;;12330363;28;20046;-88
2023/12/29 02:35:39;;;;;;;123.80;116.22;;;9.50;99.90;;;;;;12320687;28;20047;-84
2023/12/29 02:41:41;;;;;;;122.25;114.68;;;9.60;99.90;;;;;;12327239;28;20058;-89
2023/12/29 02:47:44;;;;;;;127.38;119.78;;;9.60;99.90;;;;;;12338492;28;20512;-83
2023/12/29 02:53:48;;;;;;;128.63;121.25;;;9.80;99.90;;;;;;12334623;28;20200;-88
2023/12/29 02:59:50;;;;;;;131.87;124.23;;;9.80;99.90;;;;;;12323679;28;20059;-86
2023/12/29 03:05:52;;;;;;;134.75;126.90;;;9.80;99.90;;;;;;12335615;28;20348;-85
2023/12/29 03:11:54;;;;;;;135.43;127.47;;;9.80;99.90;;;;;;12346729;28;20511;-84
2023/12/29 03:17:57;;;;;;;127.05;119.28;;;9.70;99.90;;;;;;12343479;28;20588;-87
2023/12/29 03:23:59;;;;;;;118.72;111.10;;;9.40;99.90;;;;;;12336789;28;20509;-84
2023/12/29 03:30:01;;;;;;;101.28;94.97;;;9.20;99.90;;;;;;12317562;28;20043;-87
2023/12/29 03:36:03;;;;;;;90.78;85.15;;;8.90;99.90;;;;;;12335160;28;20051;-84
2023/12/29 03:42:05;;;;;;;91.30;85.38;;;8.80;99.90;;;;;;12315124;28;20047;-86
2023/12/29 03:48:08;;;;;;;90.28;84.68;;;8.90;99.90;;;;;;12372849;28;20165;-86
2023/12/29 03:54:11;;;;;;;93.53;87.78;;;8.90;99.90;;;;;;12335081;28;20047;-85
2023/12/29 04:00:14;;;;;;;92.55;86.90;;;8.90;99.90;;;;;;12350979;28;20107;-85
2023/12/29 04:06:15;;;;;;;90.75;85.05;;;8.90;99.90;;;;;;12364923;28;20479;-86
2023/12/29 04:12:17;;;;;;;94.25;88.65;;;8.80;99.90;;;;;;12336979;28;20062;-85
2023/12/29 04:18:21;;;;;;;96.90;91.13;;;8.80;99.90;;;;;;12326296;28;20059;-83
2023/12/29 04:24:23;;;;;;;99.13;93.07;;;8.80;99.90;;;;;;12351894;28;20145;-84
2023/12/29 04:30:25;;;;;;;88.35;82.97;;;8.70;99.90;;;;;;12322360;28;20058;-86
2023/12/29 04:36:27;;;;;;;85.10;79.85;;;8.50;99.90;;;;;;12321088;28;20059;-89
2023/12/29 04:42:29;;;;;;;79.45;74.50;;;8.50;99.90;;;;;;12330771;28;20066;-86
2023/12/29 04:48:31;;;;;;;77.75;73.13;;;8.50;99.90;;;;;;12337686;28;20137;-88
2023/12/29 04:54:33;;;;;;;79.45;74.55;;;8.50;99.90;;;;;;12354343;28;20055;-86
2023/12/29 05:00:35;;;;;;;82.85;77.75;;;8.60;99.90;;;;;;12330695;28;20078;-86
2023/12/29 05:06:37;;;;;;;78.75;73.38;;;8.60;99.90;;;;;;12334946;28;20054;-89
2023/12/29 05:12:39;;;;;;;79.30;74.00;;;8.60;99.90;;;;;;12345179;28;20181;-86
2023/12/29 05:18:41;;;;;;;80.15;75.15;;;8.70;99.90;;;;;;12334697;28;20693;-90
2023/12/29 05:24:47;;;;;;;81.65;76.15;;;8.70;99.90;;;;;;12317628;28;20047;-86
2023/12/29 05:30:49;;;;;;;81.25;76.00;;;8.70;99.90;;;;;;12333671;28;20055;-86
2023/12/29 05:36:51;;;;;;;85.45;79.95;;;8.80;99.90;;;;;;12330253;28;20074;-89
2023/12/29 05:42:53;;;;;;;88.32;82.43;;;8.90;99.90;;;;;;12338174;28;20090;-88
2023/12/29 05:48:55;;;;;;;86.00;80.20;;;8.90;99.90;;;;;;12328845;28;20104;-87
2023/12/29 05:54:57;;;;;;;89.80;83.65;;;9.00;99.90;;;;;;12357130;28;20506;-86
2023/12/29 06:01:00;;;;;;;88.10;82.20;;;9.00;99.90;;;;;;12341253;28;20526;-88
2023/12/29 06:07:02;;;;;;;95.07;88.80;;;9.10;99.90;;;;;;12339665;28;20051;-86
2023/12/29 06:13:04;;;;;;;97.53;90.90;;;9.10;99.90;;;;;;12337096;28;20061;-87
2023/12/29 06:19:07;;;;;;;93.93;87.88;;;9.20;99.90;;;;;;12326739;28;20061;-90
2023/12/29 06:25:12;;;;;;;99.95;93.10;;;9.30;99.90;;;;;;12340259;28;20188;-89
2023/12/29 06:31:17;;;;;;;99.47;93.07;;;9.40;99.90;;;;;;12337664;28;20061;-88
2023/12/29 06:37:19;;;;;;;;;;;9.60;99.90;;;;;;12344521;28;20054;-87
2023/12/29 06:43:21;;;;;;;109.50;102.30;;;9.60;99.90;;;;;;12345840;28;20010;-85
2023/12/29 06:49:23;;;;;;;108.13;101.35;;;9.60;99.90;;;;;;12379060;28;20415;-89
2023/12/29 06:55:25;;;;;;;108.20;101.20;;;9.60;99.90;;;;;;12332786;28;20107;-90
2023/12/29 07:01:27;;;;;;;110.00;102.97;;;9.60;99.90;;;;;;12338380;28;20047;-86
2023/12/29 07:07:30;;;;;;;108.18;101.40;;;9.50;99.90;;;;;;12340201;28;20085;-86
2023/12/29 07:13:32;;;;;;;110.18;103.45;;;9.60;99.90;;;;;;12330836;28;20051;-88
2023/12/29 07:19:36;;;;;;;112.03;104.78;;;9.60;99.90;;;;;;12332531;28;20086;-87
2023/12/29 07:25:39;;;;;;;108.28;101.82;;;9.60;99.90;;;;;;12335014;28;20054;-85
2023/12/29 07:31:41;;;;;;;104.28;97.78;;;9.50;99.90;;;;;;12331740;28;20059;-85
2023/12/29 07:37:44;;;;;;;104.90;98.20;;;9.50;99.90;;;;;;12325609;28;20047;-87
2023/12/29 07:43:46;;;;;;;107.32;100.50;;;9.50;99.90;;;;;;12350058;28;20052;-86
2023/12/29 07:49:47;;;;;;;109.07;102.47;;;9.50;99.90;;;;;;12335245;28;20498;-90
2023/12/29 07:55:53;;;;;;;112.22;105.43;;;9.50;99.90;;;;;;12342847;28;20051;-88
2023/12/29 08:01:57;;;;;;;106.57;99.85;;;9.50;99.90;;;;;;12335655;28;20051;-89
2023/12/29 08:07:59;;;;;;;109.80;103.32;;;9.60;99.90;;;;;;12345894;28;20490;-87
2023/12/29 08:14:01;;;;;;;116.68;109.43;;;9.60;99.90;;;;;;12353929;28;20043;-90
2023/12/29 08:20:04;;;;;;;113.93;107.30;;;9.60;99.90;;;;;;12341106;28;20062;-88
2023/12/29 08:26:07;;;;;;;110.70;104.00;;;9.60;99.90;;;;;;12327806;28;20506;-87
2023/12/29 08:32:09;;;;;;;111.13;104.55;;;9.60;99.90;;;;;;12330164;28;20062;-87
2023/12/29 08:38:11;;;;;;;110.95;104.28;;;9.60;99.90;;;;;;12326218;28;20047;-85
2023/12/29 08:44:14;;;;;;;110.35;103.65;;;9.60;99.90;;;;;;12378148;28;20057;-86
2023/12/29 08:50:16;;;;;;;106.93;100.28;;;9.60;99.90;;;;;;12327433;28;20047;-88
2023/12/29 08:56:18;;;;;;;102.55;96.25;;;9.50;99.90;;;;;;12341778;28;20055;-88
2023/12/29 09:02:20;;;;;;;99.93;93.45;;;9.20;99.90;;;;;;12332944;28;20055;-85
2023/12/29 09:08:22;;;;;;;93.80;87.28;;;9.00;99.90;;;;;;12326419;28;20051;-87
2023/12/29 09:14:25;;;;;;;96.70;90.60;;;8.80;99.90;;;;;;12321566;28;20063;-85
2023/12/29 09:20:27;;;;;;;90.55;84.53;;;8.70;99.90;;;;;;12332229;28;20047;-87
2023/12/29 09:26:29;;;;;;;86.25;80.72;;;8.50;99.90;;;;;;12328032;28;20050;-83
2023/12/29 09:32:31;;;;;;;90.63;84.85;;;8.40;99.90;;;;;;12330077;28;20055;-84
2023/12/29 09:38:33;;;;;;;84.57;79.40;;;8.40;99.90;;;;;;12329622;28;20047;-83
2023/12/29 09:44:37;;;;;;;86.30;80.82;;;8.50;99.90;;;;;;12332276;28;20047;-85
2023/12/29 09:50:39;;;;;;;86.35;81.00;;;8.60;99.90;;;;;;12314085;28;20352;-85
2023/12/29 09:56:41;;;;;;;87.03;81.55;;;8.60;99.90;;;;;;12328279;28;20062;-88
2023/12/29 10:02:44;;;;;;;86.22;80.82;;;8.60;99.90;;;;;;12337806;28;20310;-84
2023/12/29 10:08:47;;;;;;;86.63;81.43;;;8.60;99.90;;;;;;12347929;28;20529;-85
2023/12/29 10:15:05;;;;;;;80.50;75.72;;;8.60;99.90;;;;;;12322950;28;20100;-83
2023/12/29 10:21:12;;;;;;;86.00;80.55;;;8.70;99.90;;;;;;12327238;28;20062;-84
2023/12/29 10:27:14;;;;;;;85.75;80.68;;;8.80;99.90;;;;;;12319521;28;20052;-86
2023/12/29 10:33:21;;;;;;;82.15;77.13;;;8.80;99.90;;;;;;12369582;28;20062;-85
2023/12/29 10:39:24;;;;;;;90.30;84.93;;;9.00;99.90;;;;;;12344858;28;20084;-88
2023/12/29 10:45:26;;;;;;;90.70;85.25;;;9.00;99.90;;;;;;12336294;28;20387;-87
2023/12/29 10:51:29;;;;;;;89.32;83.72;;;9.20;99.90;;;;;;12334367;28;20047;-86
2023/12/29 10:57:32;;;;;;;91.38;85.82;;;9.20;99.90;;;;;;12322543;28;20058;-85
2023/12/29 11:03:34;;;;;;;97.32;91.22;;;9.30;99.90;;;;;;12329652;28;20379;-86
2023/12/29 11:09:36;;;;;;;93.00;87.30;;;9.30;99.90;;;;;;12328287;28;20054;-87
2023/12/29 11:15:45;;;;;;;101.43;95.30;;;9.40;99.90;;;;;;12345977;28;20055;-87
2023/12/29 11:21:53;;;;;;;93.40;87.72;;;9.50;99.90;;;;;;12326847;28;20051;-83
2023/12/29 11:27:56;;;;;;;97.15;91.13;;;9.50;99.90;;;;;;12318709;28;20048;-86
2023/12/29 11:34:09;;;;;;;100.17;93.97;;;9.60;99.90;;;;;;12328333;28;20108;-84
2023/12/29 11:40:19;;;;;;;93.35;87.55;;;9.70;99.90;;;;;;12327382;28;20066;-87
2023/12/29 11:46:38;;;;;;;97.50;91.43;;;9.70;99.90;;;;;;12330376;28;20055;-84
2023/12/29 11:52:40;;;;;;;104.13;97.72;;;9.80;99.90;;;;;;12337986;28;20051;-88
2023/12/29 11:58:42;;;;;;;115.50;108.78;;;9.60;99.90;;;;;;12336339;28;20054;-86
2023/12/29 12:04:44;;;;;;;107.70;101.40;;;9.40;99.90;;;;;;12350396;28;20056;-85
2023/12/29 12:10:47;;;;;;;108.38;102.15;;;9.30;99.90;;;;;;12343722;28;20054;-86
2023/12/29 12:16:50;;;;;;;104.07;97.95;;;9.40;99.90;;;;;;12344099;28;20128;-86
2023/12/29 12:22:59;;;;;;;101.03;95.03;;;9.40;99.90;;;;;;12348806;28;20043;-89
2023/12/29 12:29:03;;;;;;;105.80;99.60;;;9.50;99.90;;;;;;12339368;28;20054;-84
2023/12/29 12:35:16;;;;;;;103.20;97.00;;;9.60;99.90;;;;;;12329827;28;20055;-87
2023/12/29 12:41:22;;;;;;;96.60;90.78;;;9.60;99.90;;;;;;12336318;28;20062;-87
2023/12/29 12:47:27;;;;;;;102.43;96.22;;;9.60;99.90;;;;;;12337366;28;20058;-86
2023/12/29 12:53:30;;;;;;;99.05;92.97;;;9.70;99.90;;;;;;12332932;28;20047;-89
2023/12/29 12:59:33;;;;;;;92.63;86.95;;;9.60;99.90;;;;;;12350086;28;20054;-87
2023/12/29 13:05:36;;;;;;;92.82;87.28;;;9.60;99.90;;;;;;12346535;28;20522;-86
2023/12/29 13:11:41;;;;;;;98.13;92.22;;;9.70;99.90;;;;;;12348902;28;20047;-87
2023/12/29 13:17:53;;;;;;;97.75;91.80;;;9.80;99.90;;;;;;12351177;28;20042;-88
2023/12/29 13:23:55;;;;;;;93.78;88.07;;;9.80;99.90;;;;;;12361908;28;20169;-89
2023/12/29 13:29:57;;;;;;;98.97;92.88;;;9.80;99.90;;;;;;12328717;28;20058;-91
2023/12/29 13:36:17;;;;;;;96.60;90.60;;;9.80;99.90;;;;;;12332950;28;20042;-86
2023/12/29 13:42:22;;;;;;;101.18;94.68;;;9.90;99.90;;;;;;12341316;28;20570;-88
2023/12/29 13:48:24;;;;;;;99.40;93.10;;;9.90;99.90;;;;;;12348160;28;20046;-88
2023/12/29 13:54:27;;;;;;;103.80;97.07;;;9.90;99.90;;;;;;12348279;28;20133;-86
2023/12/29 14:00:32;;;;;;;102.65;96.25;;;10.00;99.90;;;;;;12324408;28;20043;-86
2023/12/29 14:07:07;;;;;;;105.00;98.53;;;9.90;99.90;;;;;;12340011;28;20034;-88
2023/12/29 14:13:14;;;;;;;105.45;98.80;;;9.90;99.90;;;;;;12330173;28;20054;-84
2023/12/29 14:19:15;;;;;;;101.55;95.40;;;9.90;99.90;;;;;;12340522;28;20141;-87
2023/12/29 14:25:19;;;;;;;95.40;89.45;;;9.90;99.90;;;;;;12340269;28;20136;-85
2023/12/29 14:31:21;;;;;;;97.95;91.78;;;10.00;99.90;;;;;;12344824;28;20149;-88
2023/12/29 14:37:23;;;;;;;97.93;91.75;;;9.90;99.90;;;;;;12343328;28;20051;-90
2023/12/29 14:43:25;;;;;;;98.15;91.68;;;9.90;99.90;;;;;;12339078;28;20047;-87
2023/12/29 14:49:27;;;;;;;97.40;91.05;;;9.60;99.90;;;;;;12337168;28;20063;-91
2023/12/29 14:55:31;;;;;;;92.93;86.72;;;9.70;99.90;;;;;;12340300;28;20120;-88
2023/12/29 15:01:33;;;;;;;95.00;88.50;;;9.60;99.90;;;;;;12337021;28;20047;-89
2023/12/29 15:07:35;;;;;;;99.53;92.88;;;9.60;99.90;;;;;;12339504;28;20507;-87
2023/12/29 15:13:38;;;;;;;91.38;85.07;;;9.60;99.90;;;;;;12335435;28;20055;-88
2023/12/29 15:19:40;;;;;;;94.50;87.88;;;9.70;99.90;;;;;;12346476;28;20046;-87
2023/12/29 15:25:42;;;;;;;94.70;88.38;;;9.60;99.90;;;;;;12341412;28;20049;-87
2023/12/29 15:31:45;;;;;;;98.63;92.00;;;9.40;99.90;;;;;;12336598;28;20137;-86
2023/12/29 15:37:47;;;;;;;96.15;89.65;;;9.40;99.90;;;;;;12342539;28;20088;-89
2023/12/29 15:43:49;;;;;;;94.90;88.70;;;9.40;99.90;;;;;;12330185;28;20093;-87
2023/12/29 15:49:52;;;;;;;88.65;82.75;;;9.30;99.90;;;;;;12338963;28;20047;-85
2023/12/29 15:55:54;;;;;;;89.88;83.88;;;9.20;99.90;;;;;;12327809;28;20051;-88
2023/12/29 16:01:56;;;;;;;87.03;81.68;;;9.00;99.90;;;;;;12333519;28;20058;-86
2023/12/29 16:07:58;;;;;;;85.30;79.35;;;9.00;99.90;;;;;;12335420;28;20063;-89
2023/12/29 16:14:00;;;;;;;82.65;77.13;;;8.80;99.90;;;;;;12332811;28;20569;-87
2023/12/29 16:20:02;;;;;;;79.32;74.22;;;8.80;99.90;;;;;;12336244;28;20120;-87
2023/12/29 16:26:09;;;;;;;73.70;69.15;;;8.60;99.90;;;;;;12340288;28;20035;-85
2023/12/29 16:32:16;;;;;;;76.88;72.07;;;8.50;99.90;;;;;;12340027;28;20046;-86
2023/12/29 16:38:19;;;;;;;75.72;71.10;;;8.40;99.90;;;;;;12337474;28;20707;-86
2023/12/29 16:44:21;;;;;;;74.97;70.27;;;8.30;99.90;;;;;;12344432;28;20508;-85
2023/12/29 16:50:23;;;;;;;75.18;70.18;;;8.20;99.90;;;;;;12342191;28;20406;-88
2023/12/29 16:56:25;;;;;;;75.47;70.63;;;8.10;99.90;;;;;;12337384;28;20046;-87
2023/12/29 17:02:27;;;;;;;84.35;78.95;;;8.10;99.90;;;;;;12338457;28;20062;-85
2023/12/29 17:08:29;;;;;;;83.47;78.25;;;8.10;99.90;;;;;;12341712;28;20157;-85
2023/12/29 17:14:31;;;;;;;89.32;83.50;;;8.00;99.90;;;;;;12354233;28;20055;-89
2023/12/29 17:20:33;;;;;;;81.45;76.30;;;8.10;99.90;;;;;;12341754;28;20051;-87
2023/12/29 17:26:35;;;;;;;90.03;84.57;;;8.10;99.90;;;;;;12351846;28;20051;-87
2023/12/29 17:32:38;;;;;;;105.75;99.38;;;8.20;99.90;;;;;;12339087;28;20047;-86
2023/12/29 17:38:41;;;;;;;116.70;109.63;;;8.10;99.90;;;;;;12345688;28;20133;-86
2023/12/29 17:44:44;;;;;;;121.23;113.83;;;8.00;99.90;;;;;;12340557;28;20180;-85
2023/12/29 17:50:46;;;;;;;122.47;114.97;;;8.10;99.90;;;;;;12329892;28;20048;-85
2023/12/29 17:56:47;;;;;;;114.55;107.55;;;8.20;99.90;;;;;;12336155;28;20055;-85
2023/12/29 18:02:49;;;;;;;101.82;95.53;;;8.30;99.90;;;;;;12341025;28;20047;-84
2023/12/29 18:08:55;;;;;;;93.07;87.28;;;8.50;99.90;;;;;;12337125;28;20051;-84
2023/12/29 18:14:57;;;;;;;93.47;87.65;;;8.50;99.90;;;;;;12346133;28;20047;-86
2023/12/29 18:21:02;;;;;;;89.05;83.72;;;8.60;99.90;;;;;;12356766;28;20051;-85
2023/12/29 18:27:04;;;;;;;92.63;86.82;;;8.70;99.90;;;;;;12334308;28;20050;-88
2023/12/29 18:33:09;;;;;;;95.97;90.18;;;8.70;99.90;;;;;;12336219;28;20053;-88
2023/12/29 18:39:14;;;;;;;97.50;91.70;;;8.70;99.90;;;;;;12330439;28;20053;-86
2023/12/29 18:45:16;;;;;;;99.80;93.78;;;8.70;99.90;;;;;;12340514;28;20054;-85
2023/12/29 18:51:18;;;;;;;103.65;97.35;;;8.80;99.90;;;;;;12320821;28;20509;-88
2023/12/29 18:57:20;;;;;;;96.45;90.57;;;8.80;99.90;;;;;;12358169;28;20048;-88
2023/12/29 19:03:22;;;;;;;99.38;93.38;;;8.90;99.90;;;;;;12332769;28;20051;-87
2023/12/29 19:09:24;;;;;;;94.82;89.10;;;8.90;99.90;;;;;;12340023;28;20043;-87
2023/12/29 19:15:26;;;;;;;101.63;95.25;;;9.00;99.90;;;;;;12337321;28;20047;-85
2023/12/29 19:21:29;;;;;;;101.70;95.43;;;9.00;99.90;;;;;;12345150;28;20054;-88
2023/12/29 19:27:32;;;;;;;110.30;103.40;;;9.00;99.90;;;;;;12322227;28;20051;-84
2023/12/29 19:33:34;;;;;;;99.38;93.47;;;8.90;99.90;;;;;;12344265;28;20046;-84
2023/12/29 19:39:35;;;;;;;111.25;104.72;;;8.90;99.90;;;;;;12340609;28;20502;-85
2023/12/29 19:45:37;;;;;;;111.38;104.68;;;8.90;99.90;;;;;;12348718;28;20053;-87
2023/12/29 19:51:40;;;;;;;112.20;105.40;;;8.90;99.90;;;;;;12345505;28;20112;-85
2023/12/29 19:57:42;;;;;;;554.30;510.40;;;9.00;99.90;;;;;;12338180;28;20046;-85
2023/12/29 20:03:44;;;;;;;492.77;456.23;;;8.00;99.90;;;;;;12347479;28;20051;-87
2023/12/29 20:09:47;;;;;;;473.98;438.13;;;7.80;99.90;;;;;;12350451;28;20050;-85
2023/12/29 20:15:49;;;;;;;478.00;441.27;;;7.80;99.90;;;;;;12355667;28;20062;-87
2023/12/29 20:21:52;;;;;;;465.02;429.58;;;7.70;99.90;;;;;;12327379;28;20043;-85
2023/12/29 20:27:54;;;;;;;435.42;403.27;;;7.60;99.90;;;;;;12341753;28;20135;-85
2023/12/29 20:33:57;;;;;;;401.98;372.85;;;7.50;99.90;;;;;;12338397;28;20086;-84
2023/12/29 20:40:00;;;;;;;366.45;340.23;;;7.60;99.90;;;;;;12343245;28;20054;-85
2023/12/29 20:46:03;;;;;;;324.02;301.25;;;7.60;99.90;;;;;;12350507;28;20047;-87
2023/12/29 20:52:05;;;;;;;240.43;223.32;;;7.60;99.90;;;;;;12339646;28;20039;-87
2023/12/29 20:58:07;;;;;;;175.23;162.02;;;7.60;99.90;;;;;;12324315;28;20066;-86
2023/12/29 21:04:11;;;;;;;154.98;143.98;;;7.60;99.90;;;;;;12342892;28;20057;-86
2023/12/29 21:10:14;;;;;;;154.70;143.60;;;7.60;99.90;;;;;;12339151;28;20055;-86
2023/12/29 21:16:17;;;;;;;148.52;137.63;;;7.60;99.90;;;;;;12350903;28;20051;-87
2023/12/29 21:22:19;;;;;;;148.07;137.27;;;7.70;99.90;;;;;;12340190;28;20062;-87
2023/12/29 21:28:21;;;;;;;147.73;137.13;;;7.60;99.90;;;;;;12340918;28;20057;-87
2023/12/29 21:34:23;;;;;;;147.93;137.20;;;7.60;99.90;;;;;;12335938;28;20055;-88
2023/12/29 21:40:25;;;;;;;139.20;129.30;;;7.50;99.90;;;;;;12338852;28;20055;-87
2023/12/29 21:46:28;;;;;;;138.43;128.52;;;7.50;99.90;;;;;;12349693;28;20693;-88
2023/12/29 21:52:30;;;;;;;138.07;128.43;;;7.50;99.90;;;;;;12361624;28;20170;-86
2023/12/29 21:58:34;;;;;;;144.02;133.85;;;7.40;99.90;;;;;;12347818;28;20498;-88
2023/12/29 22:04:37;;;;;;;155.30;143.88;;;7.30;99.90;;;;;;12343505;28;20063;-88
2023/12/29 22:10:39;;;;;;;164.20;152.20;;;7.30;99.90;;;;;;12333254;28;20055;-87
2023/12/29 22:16:41;;;;;;;176.95;163.68;;;7.20;99.90;;;;;;12336787;28;20522;-86
2023/12/29 22:22:43;;;;;;;180.73;167.13;;;7.20;99.90;;;;;;12342824;28;20130;-87
2023/12/29 22:28:48;;;;;;;188.57;174.63;;;7.20;99.90;;;;;;12336364;28;20420;-87
2023/12/29 22:34:50;;;;;;;189.03;175.03;;;7.20;99.90;;;;;;12325349;28;20051;-88
2023/12/29 22:40:52;;;;;;;193.50;179.20;;;7.20;99.90;;;;;;12326335;28;20430;-87
2023/12/29 22:46:54;;;;;;;186.45;172.52;;;7.30;99.90;;;;;;12337083;28;20399;-87
2023/12/29 22:52:56;;;;;;;206.65;191.27;;;7.30;99.90;;;;;;12319242;28;20135;-88
2023/12/29 22:58:58;;;;;;;199.30;184.15;;;7.30;99.90;;;;;;12335050;28;20063;-86
2023/12/29 23:05:00;;;;;;;167.68;154.88;;;7.40;99.90;;;;;;12333454;28;20043;-88
2023/12/29 23:11:03;;;;;;;169.48;156.65;;;7.50;99.90;;;;;;12342892;28;20491;-88
2023/12/29 23:17:08;;;;;;;147.80;137.38;;;7.60;99.90;;;;;;12353443;28;20732;-88
2023/12/29 23:23:10;;;;;;;147.45;137.13;;;7.40;99.90;;;;;;12347166;28;20054;-88
2023/12/29 23:29:13;;;;;;;152.75;141.77;;;7.30;99.90;;;;;;12364572;28;20058;-87
2023/12/29 23:35:17;;;;;;;156.75;145.70;;;7.10;99.90;;;;;;12336173;28;20055;-87
2023/12/29 23:41:26;;;;;;;149.65;139.45;;;7.00;99.90;;;;;;12346705;28;20119;-86
2023/12/29 23:47:28;;;;;;;156.30;145.45;;;6.90;99.90;;;;;;12342975;28;20055;-85
2023/12/29 23:53:31;;;;;;;156.50;145.70;;;6.90;99.90;;;;;;12340909;28;20414;-86
2023/12/29 23:59:34;;;;;;;132.75;124.20;;;6.90;99.90;;;;;;12338679;28;20415;-86
